NOD4509 EFHK-ULLI
Flight info
| Callsign | NOD4509 |
|---|---|
| Flight time | 0h 41m |
| Altitude | 33000 |
| Route | ARVEP T82 RATMU DCT OLEMA/K0928F330 L24 AKARU AKARU1B |
| Aircraft | L101/H-SDFGHIRWXY/S |
Departure
| Time | 2026-04-26 14:26 |
|---|---|
| Airport | Helsinki Vantaa Airport (EFHK) |
Arrival
| Time | 2026-04-26 15:08 |
|---|---|
| Airport | Pulkovo Airport (ULLI) |
| Time | Latitude | Longitude | Altitude | Speed | Heading |
|---|---|---|---|---|---|
| 2026-04-26 13:54 | 60.31559 | 24.95816 | 167 ft | 0 kts | 136° |
| 2026-04-26 14:12 | 60.31569 | 24.95798 | 167 ft | 4 kts | 140° |
| 2026-04-26 14:12 | 60.31590 | 24.95769 | 167 ft | 4 kts | 172° |
| 2026-04-26 14:13 | 60.31613 | 24.95715 | 166 ft | 3 kts | 314° |
| 2026-04-26 14:13 | 60.31613 | 24.95716 | 166 ft | 0 kts | 316° |
| 2026-04-26 14:17 | 60.31630 | 24.95682 | 166 ft | 6 kts | 316° |
| 2026-04-26 14:17 | 60.31673 | 24.95604 | 165 ft | 10 kts | 319° |
| 2026-04-26 14:17 | 60.31695 | 24.95565 | 165 ft | 3 kts | 323° |
| 2026-04-26 14:18 | 60.31723 | 24.95555 | 164 ft | 5 kts | 7° |
| 2026-04-26 14:18 | 60.31762 | 24.95600 | 165 ft | 8 kts | 41° |
| 2026-04-26 14:18 | 60.31809 | 24.95688 | 165 ft | 11 kts | 47° |
| 2026-04-26 14:18 | 60.31866 | 24.95812 | 166 ft | 13 kts | 47° |
| 2026-04-26 14:19 | 60.31934 | 24.95958 | 167 ft | 16 kts | 47° |
| 2026-04-26 14:19 | 60.32009 | 24.96120 | 168 ft | 7 kts | 46° |
| 2026-04-26 14:19 | 60.32022 | 24.96147 | 168 ft | 6 kts | 46° |
| 2026-04-26 14:19 | 60.32058 | 24.96223 | 169 ft | 9 kts | 46° |
| 2026-04-26 14:20 | 60.32107 | 24.96328 | 169 ft | 12 kts | 46° |
| 2026-04-26 14:20 | 60.32166 | 24.96458 | 170 ft | 13 kts | 53° |
| 2026-04-26 14:20 | 60.32226 | 24.96606 | 172 ft | 15 kts | 46° |
| 2026-04-26 14:20 | 60.32279 | 24.96781 | 173 ft | 13 kts | 91° |
| 2026-04-26 14:21 | 60.32221 | 24.96929 | 175 ft | 15 kts | 148° |
| 2026-04-26 14:21 | 60.32121 | 24.97039 | 176 ft | 18 kts | 153° |
| 2026-04-26 14:21 | 60.32003 | 24.97161 | 178 ft | 20 kts | 153° |
| 2026-04-26 14:21 | 60.31870 | 24.97297 | 180 ft | 23 kts | 153° |
| 2026-04-26 14:22 | 60.31774 | 24.97395 | 181 ft | 24 kts | 153° |
| 2026-04-26 14:22 | 60.31617 | 24.97554 | 183 ft | 26 kts | 153° |
| 2026-04-26 14:22 | 60.31525 | 24.97654 | 189 ft | 8 kts | 150° |
| 2026-04-26 14:22 | 60.31468 | 24.97718 | 191 ft | 11 kts | 150° |
| 2026-04-26 14:23 | 60.31390 | 24.97802 | 188 ft | 14 kts | 153° |
| 2026-04-26 14:23 | 60.31325 | 24.97869 | 197 ft | 6 kts | 152° |
| 2026-04-26 14:23 | 60.31278 | 24.97918 | 193 ft | 9 kts | 152° |
| 2026-04-26 14:23 | 60.31209 | 24.97990 | 187 ft | 13 kts | 152° |
| 2026-04-26 14:24 | 60.31121 | 24.98083 | 195 ft | 16 kts | 152° |
| 2026-04-26 14:24 | 60.31013 | 24.98195 | 190 ft | 19 kts | 152° |
| 2026-04-26 14:24 | 60.30994 | 24.98392 | 196 ft | 16 kts | 66° |
| 2026-04-26 14:24 | 60.31047 | 24.98475 | 195 ft | 0 kts | 327° |
| 2026-04-26 14:25 | 60.31149 | 24.98361 | 204 ft | 46 kts | 333° |
| 2026-04-26 14:26 | 60.31580 | 24.97925 | 183 ft | 95 kts | 334° |
| 2026-04-26 14:26 | 60.32341 | 24.97140 | 177 ft | 149 kts | 332° |
| 2026-04-26 14:26 | 60.33277 | 24.96125 | 740 ft | 155 kts | 332° |
| 2026-04-26 14:26 | 60.34336 | 24.95115 | 1527 ft | 184 kts | 338° |
| 2026-04-26 14:27 | 60.35683 | 24.94302 | 2421 ft | 219 kts | 348° |
| 2026-04-26 14:27 | 60.37236 | 24.94508 | 3123 ft | 230 kts | 12° |
| 2026-04-26 14:27 | 60.38616 | 24.96153 | 3731 ft | 238 kts | 36° |
| 2026-04-26 14:27 | 60.39613 | 24.98933 | 3785 ft | 246 kts | 57° |
| 2026-04-26 14:28 | 60.40170 | 25.02223 | 3938 ft | 250 kts | 69° |
| 2026-04-26 14:28 | 60.40230 | 25.05790 | 4342 ft | 264 kts | 92° |
| 2026-04-26 14:28 | 60.39736 | 25.09426 | 4922 ft | 273 kts | 101° |
| 2026-04-26 14:28 | 60.39114 | 25.13011 | 5468 ft | 274 kts | 102° |
| 2026-04-26 14:29 | 60.38513 | 25.16681 | 5995 ft | 275 kts | 99° |
| 2026-04-26 14:29 | 60.37998 | 25.20366 | 6493 ft | 274 kts | 96° |
| 2026-04-26 14:29 | 60.37552 | 25.24110 | 6994 ft | 275 kts | 95° |
| 2026-04-26 14:29 | 60.37134 | 25.27890 | 7508 ft | 275 kts | 94° |
| 2026-04-26 14:30 | 60.36735 | 25.31677 | 8020 ft | 277 kts | 94° |
| 2026-04-26 14:30 | 60.36337 | 25.35497 | 8504 ft | 279 kts | 94° |
| 2026-04-26 14:30 | 60.35935 | 25.39347 | 9001 ft | 282 kts | 94° |
| 2026-04-26 14:30 | 60.35527 | 25.43220 | 9502 ft | 282 kts | 94° |
| 2026-04-26 14:31 | 60.35119 | 25.47117 | 10007 ft | 284 kts | 95° |
| 2026-04-26 14:31 | 60.34712 | 25.51035 | 10509 ft | 286 kts | 95° |
| 2026-04-26 14:31 | 60.34299 | 25.54964 | 10999 ft | 285 kts | 96° |
| 2026-04-26 14:31 | 60.33877 | 25.58891 | 11508 ft | 288 kts | 96° |
| 2026-04-26 14:32 | 60.33459 | 25.62848 | 12009 ft | 289 kts | 97° |
| 2026-04-26 14:32 | 60.33037 | 25.66831 | 12510 ft | 290 kts | 97° |
| 2026-04-26 14:32 | 60.32616 | 25.70834 | 13014 ft | 294 kts | 97° |
| 2026-04-26 14:32 | 60.32184 | 25.74860 | 13510 ft | 294 kts | 98° |
| 2026-04-26 14:33 | 60.31739 | 25.78905 | 14016 ft | 294 kts | 98° |
| 2026-04-26 14:33 | 60.31285 | 25.82952 | 14508 ft | 298 kts | 99° |
| 2026-04-26 14:33 | 60.30826 | 25.87045 | 15014 ft | 300 kts | 98° |
| 2026-04-26 14:33 | 60.30374 | 25.91160 | 15508 ft | 302 kts | 98° |
| 2026-04-26 14:34 | 60.29912 | 25.95322 | 16015 ft | 304 kts | 99° |
| 2026-04-26 14:34 | 60.29436 | 25.99597 | 16535 ft | 324 kts | 99° |
| 2026-04-26 14:34 | 60.28937 | 26.04115 | 17083 ft | 341 kts | 99° |
| 2026-04-26 14:34 | 60.28408 | 26.08882 | 17885 ft | 353 kts | 100° |
| 2026-04-26 14:35 | 60.27866 | 26.13703 | 19128 ft | 352 kts | 101° |
| 2026-04-26 14:35 | 60.27322 | 26.18499 | 20326 ft | 352 kts | 101° |
| 2026-04-26 14:35 | 60.26773 | 26.23328 | 21381 ft | 355 kts | 101° |
| 2026-04-26 14:35 | 60.26218 | 26.28237 | 22214 ft | 364 kts | 102° |
| 2026-04-26 14:36 | 60.25647 | 26.33274 | 22928 ft | 376 kts | 102° |
| 2026-04-26 14:36 | 60.25056 | 26.38469 | 23747 ft | 382 kts | 102° |
| 2026-04-26 14:36 | 60.24477 | 26.43687 | 24792 ft | 381 kts | 101° |
| 2026-04-26 14:36 | 60.23976 | 26.48839 | 25895 ft | 378 kts | 99° |
| 2026-04-26 14:37 | 60.23516 | 26.54143 | 26690 ft | 384 kts | 96° |
| 2026-04-26 14:37 | 60.23239 | 26.59607 | 27020 ft | 401 kts | 92° |
| 2026-04-26 14:37 | 60.23104 | 26.65255 | 27252 ft | 419 kts | 90° |
| 2026-04-26 14:37 | 60.23055 | 26.71278 | 27782 ft | 427 kts | 88° |
| 2026-04-26 14:38 | 60.23071 | 26.77158 | 28663 ft | 425 kts | 87° |
| 2026-04-26 14:38 | 60.23105 | 26.83059 | 29717 ft | 418 kts | 87° |
| 2026-04-26 14:38 | 60.23140 | 26.88863 | 30477 ft | 421 kts | 87° |
| 2026-04-26 14:38 | 60.23166 | 26.94939 | 30717 ft | 443 kts | 87° |
| 2026-04-26 14:39 | 60.23182 | 27.01301 | 30709 ft | 469 kts | 88° |
| 2026-04-26 14:39 | 60.23196 | 27.08007 | 30693 ft | 486 kts | 88° |
| 2026-04-26 14:39 | 60.23203 | 27.14834 | 30694 ft | 491 kts | 88° |
| 2026-04-26 14:40 | 60.23196 | 27.27870 | 30689 ft | 494 kts | 88° |
| 2026-04-26 14:40 | 60.23173 | 27.41516 | 30688 ft | 494 kts | 88° |
| 2026-04-26 14:41 | 60.23070 | 27.55328 | 30688 ft | 494 kts | 91° |
| 2026-04-26 14:41 | 60.22589 | 27.69150 | 30689 ft | 495 kts | 94° |
| 2026-04-26 14:42 | 60.21916 | 27.82931 | 30689 ft | 495 kts | 94° |
| 2026-04-26 14:42 | 60.21274 | 27.96700 | 30664 ft | 495 kts | 93° |
| 2026-04-26 14:43 | 60.20715 | 28.10494 | 30652 ft | 494 kts | 93° |
| 2026-04-26 14:43 | 60.20451 | 28.17336 | 30632 ft | 481 kts | 93° |
| 2026-04-26 14:43 | 60.20179 | 28.23886 | 30174 ft | 461 kts | 93° |
| 2026-04-26 14:43 | 60.19923 | 28.30012 | 29377 ft | 452 kts | 93° |
| 2026-04-26 14:44 | 60.19663 | 28.36245 | 28543 ft | 444 kts | 93° |
| 2026-04-26 14:44 | 60.19411 | 28.42172 | 27755 ft | 435 kts | 93° |
| 2026-04-26 14:44 | 60.19144 | 28.48231 | 26969 ft | 425 kts | 93° |
| 2026-04-26 14:44 | 60.18881 | 28.54003 | 26226 ft | 415 kts | 93° |
| 2026-04-26 14:45 | 60.18611 | 28.59717 | 25477 ft | 406 kts | 93° |
| 2026-04-26 14:45 | 60.18428 | 28.63502 | 24966 ft | 400 kts | 94° |
| 2026-04-26 14:45 | 60.17958 | 28.70739 | 23977 ft | 390 kts | 96° |
| 2026-04-26 14:45 | 60.17501 | 28.76059 | 23219 ft | 382 kts | 98° |
| 2026-04-26 14:46 | 60.17002 | 28.81221 | 22468 ft | 375 kts | 98° |
| 2026-04-26 14:46 | 60.16498 | 28.86313 | 21722 ft | 368 kts | 98° |
| 2026-04-26 14:46 | 60.16015 | 28.91312 | 20971 ft | 362 kts | 97° |
| 2026-04-26 14:46 | 60.15558 | 28.96252 | 20217 ft | 357 kts | 97° |
| 2026-04-26 14:47 | 60.15123 | 29.01106 | 19465 ft | 351 kts | 97° |
| 2026-04-26 14:47 | 60.14697 | 29.05905 | 18711 ft | 346 kts | 97° |
| 2026-04-26 14:47 | 60.14275 | 29.10611 | 17961 ft | 342 kts | 96° |
| 2026-04-26 14:47 | 60.13848 | 29.15264 | 17217 ft | 337 kts | 96° |
| 2026-04-26 14:48 | 60.13417 | 29.19845 | 16485 ft | 332 kts | 97° |
| 2026-04-26 14:48 | 60.12960 | 29.24365 | 15705 ft | 329 kts | 97° |
| 2026-04-26 14:48 | 60.12545 | 29.28856 | 14958 ft | 326 kts | 96° |
| 2026-04-26 14:48 | 60.12163 | 29.33252 | 14609 ft | 311 kts | 96° |
| 2026-04-26 14:49 | 60.11806 | 29.37376 | 14579 ft | 288 kts | 96° |
| 2026-04-26 14:49 | 60.11461 | 29.41266 | 14588 ft | 291 kts | 96° |
| 2026-04-26 14:49 | 60.11080 | 29.45507 | 14648 ft | 316 kts | 96° |
| 2026-04-26 14:49 | 60.10683 | 29.49827 | 14403 ft | 315 kts | 97° |
| 2026-04-26 14:50 | 60.10277 | 29.54102 | 13866 ft | 308 kts | 97° |
| 2026-04-26 14:50 | 60.09876 | 29.58278 | 13327 ft | 302 kts | 97° |
| 2026-04-26 14:50 | 60.09490 | 29.62363 | 12814 ft | 296 kts | 97° |
| 2026-04-26 14:50 | 60.09121 | 29.66321 | 12322 ft | 291 kts | 97° |
| 2026-04-26 14:51 | 60.08754 | 29.70275 | 11717 ft | 288 kts | 97° |
| 2026-04-26 14:51 | 60.08444 | 29.74241 | 10967 ft | 291 kts | 95° |
| 2026-04-26 14:51 | 60.08112 | 29.78267 | 10217 ft | 294 kts | 97° |
| 2026-04-26 14:51 | 60.07719 | 29.82305 | 9461 ft | 296 kts | 99° |
| 2026-04-26 14:52 | 60.07310 | 29.86346 | 8712 ft | 297 kts | 99° |
| 2026-04-26 14:52 | 60.06886 | 29.90403 | 7963 ft | 296 kts | 99° |
| 2026-04-26 14:52 | 60.06472 | 29.94435 | 7218 ft | 296 kts | 98° |
| 2026-04-26 14:52 | 60.06075 | 29.98432 | 6670 ft | 289 kts | 98° |
| 2026-04-26 14:53 | 60.05697 | 30.02309 | 6169 ft | 279 kts | 98° |
| 2026-04-26 14:53 | 60.05316 | 30.06096 | 5657 ft | 275 kts | 100° |
| 2026-04-26 14:53 | 60.04806 | 30.09691 | 5413 ft | 261 kts | 105° |
| 2026-04-26 14:53 | 60.04214 | 30.13113 | 5333 ft | 266 kts | 105° |
| 2026-04-26 14:54 | 60.03635 | 30.16597 | 5262 ft | 258 kts | 104° |
| 2026-04-26 14:54 | 60.03122 | 30.19966 | 5196 ft | 255 kts | 103° |
| 2026-04-26 14:54 | 60.02563 | 30.23408 | 4999 ft | 260 kts | 105° |
| 2026-04-26 14:54 | 60.01963 | 30.26880 | 4883 ft | 263 kts | 105° |
| 2026-04-26 14:55 | 60.01315 | 30.30273 | 4667 ft | 256 kts | 108° |
| 2026-04-26 14:55 | 60.00774 | 30.33019 | 4553 ft | 261 kts | 105° |
| 2026-04-26 14:55 | 60.00224 | 30.36467 | 4545 ft | 259 kts | 104° |
| 2026-04-26 14:55 | 59.99713 | 30.39948 | 4423 ft | 258 kts | 102° |
| 2026-04-26 14:56 | 59.99206 | 30.43395 | 4306 ft | 258 kts | 102° |
| 2026-04-26 14:56 | 59.98705 | 30.46836 | 4212 ft | 258 kts | 103° |
| 2026-04-26 14:56 | 59.98183 | 30.50248 | 4090 ft | 258 kts | 104° |
| 2026-04-26 14:56 | 59.97653 | 30.53645 | 3948 ft | 260 kts | 104° |
| 2026-04-26 14:57 | 59.97107 | 30.57067 | 3825 ft | 259 kts | 105° |
| 2026-04-26 14:57 | 59.96544 | 30.60463 | 3738 ft | 258 kts | 106° |
| 2026-04-26 14:57 | 59.95981 | 30.63844 | 3581 ft | 257 kts | 105° |
| 2026-04-26 14:57 | 59.95428 | 30.67217 | 3465 ft | 260 kts | 105° |
| 2026-04-26 14:58 | 59.94866 | 30.70659 | 3371 ft | 263 kts | 107° |
| 2026-04-26 14:58 | 59.94267 | 30.74083 | 3289 ft | 263 kts | 106° |
| 2026-04-26 14:58 | 59.93703 | 30.77499 | 3366 ft | 258 kts | 106° |
| 2026-04-26 14:58 | 59.92975 | 30.80863 | 3428 ft | 258 kts | 120° |
| 2026-04-26 14:59 | 59.91955 | 30.83873 | 3463 ft | 266 kts | 125° |
| 2026-04-26 14:59 | 59.90859 | 30.86800 | 3511 ft | 264 kts | 127° |
| 2026-04-26 14:59 | 59.89730 | 30.89687 | 3503 ft | 263 kts | 128° |
| 2026-04-26 14:59 | 59.89010 | 30.91592 | 3469 ft | 257 kts | 128° |
| 2026-04-26 15:00 | 59.87038 | 30.94134 | 3451 ft | 254 kts | 166° |
| 2026-04-26 15:00 | 59.85345 | 30.94340 | 3401 ft | 247 kts | 195° |
| 2026-04-26 15:00 | 59.83835 | 30.92920 | 3476 ft | 243 kts | 224° |
| 2026-04-26 15:00 | 59.82827 | 30.90285 | 3420 ft | 245 kts | 244° |
| 2026-04-26 15:01 | 59.82138 | 30.87185 | 3259 ft | 239 kts | 250° |
| 2026-04-26 15:01 | 59.81561 | 30.84070 | 2971 ft | 238 kts | 251° |
| 2026-04-26 15:01 | 59.80971 | 30.81083 | 2717 ft | 231 kts | 252° |
| 2026-04-26 15:01 | 59.80344 | 30.78229 | 2458 ft | 222 kts | 241° |
| 2026-04-26 15:02 | 59.79536 | 30.75817 | 2323 ft | 199 kts | 238° |
| 2026-04-26 15:02 | 59.78734 | 30.73659 | 2101 ft | 188 kts | 235° |
| 2026-04-26 15:02 | 59.77954 | 30.71595 | 2068 ft | 187 kts | 235° |
| 2026-04-26 15:02 | 59.77168 | 30.69514 | 2065 ft | 189 kts | 234° |
| 2026-04-26 15:03 | 59.76384 | 30.67454 | 2092 ft | 182 kts | 235° |
| 2026-04-26 15:03 | 59.75622 | 30.65470 | 2072 ft | 181 kts | 237° |
| 2026-04-26 15:03 | 59.74830 | 30.63511 | 1993 ft | 182 kts | 236° |
| 2026-04-26 15:03 | 59.74046 | 30.61592 | 2059 ft | 174 kts | 243° |
| 2026-04-26 15:04 | 59.73843 | 30.59381 | 1974 ft | 160 kts | 281° |
| 2026-04-26 15:04 | 59.73960 | 30.57210 | 1987 ft | 160 kts | 282° |
| 2026-04-26 15:04 | 59.74268 | 30.55169 | 1945 ft | 153 kts | 307° |
| 2026-04-26 15:04 | 59.74963 | 30.53611 | 1985 ft | 150 kts | 318° |
| 2026-04-26 15:05 | 59.75544 | 30.51888 | 1969 ft | 154 kts | 299° |
| 2026-04-26 15:05 | 59.75664 | 30.51205 | 1986 ft | 156 kts | 294° |
| 2026-04-26 15:05 | 59.76146 | 30.47760 | 2016 ft | 151 kts | 293° |
| 2026-04-26 15:05 | 59.76432 | 30.45846 | 1832 ft | 145 kts | 294° |
| 2026-04-26 15:06 | 59.76727 | 30.43886 | 1739 ft | 153 kts | 293° |
| 2026-04-26 15:06 | 59.77023 | 30.41859 | 1508 ft | 153 kts | 292° |
| 2026-04-26 15:06 | 59.77321 | 30.39844 | 1302 ft | 153 kts | 291° |
| 2026-04-26 15:06 | 59.77619 | 30.37814 | 1099 ft | 153 kts | 291° |
| 2026-04-26 15:07 | 59.78213 | 30.33788 | 694 ft | 152 kts | 290° |
| 2026-04-26 15:07 | 59.78521 | 30.31769 | 499 ft | 152 kts | 290° |
| 2026-04-26 15:07 | 59.78812 | 30.29752 | 264 ft | 147 kts | 289° |
| 2026-04-26 15:08 | 59.79074 | 30.28007 | 95 ft | 113 kts | 288° |
| 2026-04-26 15:08 | 59.79246 | 30.26870 | 90 ft | 56 kts | 285° |
| 2026-04-26 15:08 | 59.79311 | 30.26489 | 89 ft | 20 kts | 290° |
| 2026-04-26 15:08 | 59.79371 | 30.26396 | 87 ft | 0 kts | 4° |
| 2026-04-26 15:09 | 59.79372 | 30.26396 | 87 ft | 0 kts | 4° |
| 2026-04-26 15:10 | 59.79373 | 30.26396 | 87 ft | 1 kts | 4° |
| 2026-04-26 15:10 | 59.79383 | 30.26398 | 88 ft | 3 kts | 4° |
| 2026-04-26 15:10 | 59.79415 | 30.26402 | 87 ft | 3 kts | 4° |
| 2026-04-26 15:10 | 59.79428 | 30.26404 | 87 ft | 0 kts | 4° |
| 2026-04-26 15:11 | 59.79431 | 30.26405 | 87 ft | 1 kts | 4° |
| 2026-04-26 15:11 | 59.79451 | 30.26408 | 91 ft | 4 kts | 4° |
| 2026-04-26 15:11 | 59.79490 | 30.26390 | 87 ft | 7 kts | 324° |
| 2026-04-26 15:11 | 59.79513 | 30.26341 | 88 ft | 6 kts | 324° |
| 2026-04-26 15:12 | 59.79556 | 30.26331 | 87 ft | 8 kts | 358° |
| 2026-04-26 15:12 | 59.79607 | 30.26359 | 86 ft | 9 kts | 19° |
| 2026-04-26 15:12 | 59.79680 | 30.26406 | 86 ft | 13 kts | 17° |
| 2026-04-26 15:12 | 59.79774 | 30.26452 | 86 ft | 15 kts | 14° |
| 2026-04-26 15:13 | 59.79883 | 30.26508 | 88 ft | 17 kts | 16° |
| 2026-04-26 15:13 | 59.80005 | 30.26578 | 89 ft | 19 kts | 16° |
| 2026-04-26 15:13 | 59.80063 | 30.26612 | 88 ft | 4 kts | 17° |
| 2026-04-26 15:13 | 59.80104 | 30.26637 | 90 ft | 8 kts | 17° |
| 2026-04-26 15:14 | 59.80148 | 30.26663 | 87 ft | 1 kts | 17° |
| 2026-04-26 15:14 | 59.80175 | 30.26691 | 86 ft | 8 kts | 35° |
| 2026-04-26 15:14 | 59.80195 | 30.26819 | 86 ft | 13 kts | 95° |
| 2026-04-26 15:14 | 59.80184 | 30.26917 | 85 ft | 1 kts | 106° |
| 2026-04-26 15:15 | 59.80182 | 30.26929 | 87 ft | 0 kts | 106° |